Time;durP1;ratioP1;P1;durP2;ratioP2;P2;SDS_P1;SDS_P2;PMS_P1;PMS_P2;Temp;Humidity;BMP_temperature;BMP_pressure;BME280_temperature;BME280_humidity;BME280_pressure;Samples;Min_cycle;Max_cycle;Signal;HPM_P1;HPM_P2
2022/02/17 00:01:00;;;;;;;218.53;211.60;;;13.40;99.90;;;;;;5018927;28;20484;-80
2022/02/17 00:03:28;;;;;;;277.43;268.37;;;13.40;99.90;;;;;;5018542;28;20458;-82
2022/02/17 00:05:56;;;;;;;345.10;332.93;;;13.30;99.90;;;;;;5018814;28;20997;-82
2022/02/17 00:08:22;;;;;;;339.50;327.60;;;13.00;99.90;;;;;;5018406;28;20480;-83
2022/02/17 00:10:49;;;;;;;343.57;331.43;;;12.90;99.90;;;;;;5019263;28;20462;-81
2022/02/17 00:13:16;;;;;;;365.73;352.07;;;12.90;99.90;;;;;;5019047;28;20853;-81
2022/02/17 00:15:44;;;;;;;357.50;344.07;;;13.00;99.90;;;;;;5018721;28;20457;-83
2022/02/17 00:18:13;;;;;;;369.07;355.13;;;13.10;99.90;;;;;;5018393;28;20591;-82
2022/02/17 00:20:40;;;;;;;361.87;348.07;;;13.10;99.90;;;;;;5018201;28;20470;-82
2022/02/17 00:23:07;;;;;;;344.90;332.17;;;13.10;99.90;;;;;;5018894;28;20460;-82
2022/02/17 00:25:33;;;;;;;322.77;311.13;;;13.10;99.90;;;;;;5019099;28;20834;-82
2022/02/17 00:28:00;;;;;;;283.17;273.27;;;13.10;99.90;;;;;;5018351;28;20464;-82
2022/02/17 00:30:28;;;;;;;250.17;241.73;;;13.20;99.90;;;;;;5017688;28;20453;-80
2022/02/17 00:32:57;;;;;;;245.40;237.30;;;13.20;99.90;;;;;;5017905;28;20489;-82
2022/02/17 00:35:23;;;;;;;261.67;252.80;;;13.30;99.90;;;;;;5017953;28;20544;-82
2022/02/17 00:37:50;;;;;;;240.33;232.50;;;13.30;99.90;;;;;;5018905;28;20457;-81
2022/02/17 00:40:17;;;;;;;164.57;159.07;;;13.30;99.90;;;;;;5017837;28;20469;-81
2022/02/17 00:42:43;;;;;;;142.97;138.23;;;13.40;99.90;;;;;;5018370;28;20453;-81
2022/02/17 00:45:10;;;;;;;131.23;127.00;;;13.50;99.90;;;;;;5018181;28;20453;-81
2022/02/17 00:47:37;;;;;;;291.70;282.40;;;13.40;99.90;;;;;;5019148;28;20457;-82
2022/02/17 00:50:06;;;;;;;346.27;334.60;;;12.80;99.90;;;;;;5017632;28;20476;-84
2022/02/17 00:52:33;;;;;;;332.63;321.63;;;12.70;99.90;;;;;;5018238;28;20467;-81
2022/02/17 00:55:02;;;;;;;187.70;181.77;;;12.80;99.90;;;;;;5017765;28;20930;-80
2022/02/17 00:57:29;;;;;;;74.97;72.03;;;12.90;99.90;;;;;;5016659;28;20468;-82
2022/02/17 00:59:56;;;;;;;49.33;47.33;;;13.00;99.90;;;;;;5015589;28;20481;-81
2022/02/17 01:02:22;;;;;;;26.80;24.93;;;13.10;99.90;;;;;;5016436;28;20982;-82
2022/02/17 01:04:49;;;;;;;19.40;18.53;;;13.30;99.90;;;;;;5017106;28;20470;-82
2022/02/17 01:07:17;;;;;;;28.07;26.87;;;13.20;99.90;;;;;;5016598;28;20461;-81
2022/02/17 01:09:44;;;;;;;22.27;21.07;;;13.20;99.90;;;;;;5016336;28;20900;-82
2022/02/17 01:12:11;;;;;;;19.63;16.73;;;13.40;99.00;;;;;;5017630;28;20473;-80
2022/02/17 01:14:38;;;;;;;15.10;14.13;;;13.30;99.00;;;;;;5016897;28;20453;-81
2022/02/17 01:17:05;;;;;;;24.13;22.67;;;13.30;99.30;;;;;;5016740;28;20468;-83
2022/02/17 01:19:32;;;;;;;104.27;100.77;;;12.90;99.90;;;;;;5016699;28;20563;-81
2022/02/17 01:21:59;;;;;;;164.90;159.43;;;12.30;99.90;;;;;;5019232;28;20460;-80
2022/02/17 01:24:27;;;;;;;228.27;220.93;;;11.80;99.90;;;;;;5019524;28;20457;-80
2022/02/17 01:26:53;;;;;;;250.03;242.20;;;11.50;99.90;;;;;;5020073;28;20453;-80
2022/02/17 01:29:20;;;;;;;341.87;330.77;;;11.50;99.90;;;;;;5018355;28;20472;-81
2022/02/17 01:31:47;;;;;;;168.60;162.57;;;11.40;99.90;;;;;;5018586;28;20461;-80
2022/02/17 01:34:14;;;;;;;190.13;183.63;;;11.70;99.90;;;;;;5017844;28;20464;-80
2022/02/17 01:36:41;;;;;;;57.67;54.93;;;12.00;99.90;;;;;;5017970;28;20460;-83
2022/02/17 01:39:08;;;;;;;24.10;22.63;;;12.30;99.90;;;;;;5016656;28;20473;-82
2022/02/17 01:41:36;;;;;;;51.00;48.93;;;12.60;99.90;;;;;;5017344;28;20483;-81
2022/02/17 01:44:03;;;;;;;21.93;20.53;;;12.70;99.90;;;;;;5017225;28;20449;-84
2022/02/17 01:46:35;;;;;;;25.93;24.40;;;12.70;99.90;;;;;;5017476;28;20460;-82
2022/02/17 01:49:02;;;;;;;9.63;8.63;;;12.40;99.90;;;;;;5015965;28;20468;-82
2022/02/17 01:51:30;;;;;;;9.97;6.53;;;12.50;99.60;;;;;;5015846;28;20449;-83
2022/02/17 01:53:58;;;;;;;8.43;5.30;;;12.70;97.00;;;;;;5016361;28;20449;-80
2022/02/17 01:56:25;;;;;;;16.33;4.80;;;12.70;95.20;;;;;;5017666;28;20950;-82
2022/02/17 01:58:54;;;;;;;6.07;3.00;;;12.80;94.10;;;;;;5015342;28;20893;-84
2022/02/17 02:01:22;;;;;;;14.57;3.50;;;12.90;92.70;;;;;;5015093;28;20481;-81
2022/02/17 02:03:49;;;;;;;8.50;2.70;;;12.80;92.10;;;;;;5016566;28;20457;-81
2022/02/17 02:06:16;;;;;;;12.97;2.93;;;13.10;88.60;;;;;;5015797;28;20453;-82
2022/02/17 02:08:43;;;;;;;10.30;2.63;;;12.90;90.20;;;;;;5019998;28;20473;-81
2022/02/17 02:11:10;;;;;;;12.37;3.80;;;12.90;86.30;;;;;;5021323;28;20456;-81
2022/02/17 02:13:37;;;;;;;10.30;2.40;;;13.00;84.10;;;;;;5021780;28;20449;-81
2022/02/17 02:16:06;;;;;;;8.40;2.50;;;12.90;85.30;;;;;;5022519;28;20456;-81
2022/02/17 02:18:33;;;;;;;14.07;4.37;;;12.80;84.80;;;;;;5022023;28;20484;-83
2022/02/17 02:21:03;;;;;;;12.13;3.40;;;12.80;86.00;;;;;;5022862;28;20554;-80
2022/02/17 02:23:30;;;;;;;10.30;2.50;;;12.80;84.50;;;;;;5022241;28;20930;-80
2022/02/17 02:25:57;;;;;;;9.47;2.47;;;12.70;84.10;;;;;;5022231;28;20452;-79
2022/02/17 02:28:25;;;;;;;11.57;3.27;;;12.60;81.80;;;;;;5021815;28;20560;-81
2022/02/17 02:30:53;;;;;;;10.30;2.80;;;12.70;78.70;;;;;;5021584;28;20464;-81
2022/02/17 02:33:20;;;;;;;8.60;3.00;;;12.70;77.20;;;;;;5022740;28;20449;-80
2022/02/17 02:35:48;;;;;;;10.50;3.43;;;12.50;79.20;;;;;;5022512;28;20457;-81
2022/02/17 02:38:16;;;;;;;11.63;4.50;;;12.50;75.60;;;;;;5020330;28;20476;-85
2022/02/17 02:40:43;;;;;;;16.57;4.00;;;12.40;75.50;;;;;;5021204;28;20993;-80
2022/02/17 02:43:11;;;;;;;12.17;2.97;;;12.40;74.40;;;;;;5021235;28;20461;-83
2022/02/17 02:45:38;;;;;;;12.80;3.57;;;12.50;72.90;;;;;;5020799;28;20557;-80
2022/02/17 02:48:06;;;;;;;16.47;4.23;;;12.40;73.00;;;;;;5019639;28;20481;-84
2022/02/17 02:50:33;;;;;;;10.00;3.13;;;12.40;71.30;;;;;;5020765;28;20456;-80
2022/02/17 02:53:00;;;;;;;20.43;4.57;;;12.40;72.00;;;;;;5020360;28;20453;-81
2022/02/17 02:55:29;;;;;;;11.50;3.33;;;12.30;73.40;;;;;;5019119;28;20457;-82
2022/02/17 02:57:55;;;;;;;12.60;3.57;;;12.30;76.30;;;;;;5020025;28;20453;-81
2022/02/17 03:00:30;;;;;;;9.87;3.43;;;12.10;76.30;;;;;;5019680;28;20476;-81
2022/02/17 03:02:57;;;;;;;20.37;4.90;;;12.40;70.50;;;;;;5020186;28;20451;-79
2022/02/17 03:05:24;;;;;;;8.90;4.10;;;12.20;73.30;;;;;;5019279;28;20453;-81
2022/02/17 03:07:52;;;;;;;16.87;3.07;;;12.20;69.20;;;;;;5019278;28;20814;-82
2022/02/17 03:10:19;;;;;;;12.67;3.40;;;12.30;68.80;;;;;;5018732;28;21240;-81
2022/02/17 03:12:47;;;;;;;15.27;3.73;;;12.30;70.90;;;;;;5019463;28;20457;-82
2022/02/17 03:15:15;;;;;;;13.23;3.73;;;12.30;68.10;;;;;;5019623;28;20449;-84
2022/02/17 03:17:42;;;;;;;27.33;4.83;;;12.30;68.30;;;;;;5019675;28;20847;-83
2022/02/17 03:20:09;;;;;;;16.47;5.27;;;12.30;67.10;;;;;;5018940;28;20572;-81
2022/02/17 03:22:37;;;;;;;24.43;4.27;;;12.20;68.70;;;;;;5000328;28;20450;-84
2022/02/17 03:25:05;;;;;;;22.17;6.03;;;12.10;69.80;;;;;;4999537;28;20458;-81
2022/02/17 03:27:32;;;;;;;15.00;4.40;;;12.10;69.30;;;;;;5017294;28;20445;-81
2022/02/17 03:30:01;;;;;;;13.60;4.30;;;12.00;68.30;;;;;;5018374;28;20477;-81
2022/02/17 03:32:28;;;;;;;14.00;3.70;;;12.10;67.80;;;;;;5018067;28;20483;-80
2022/02/17 03:34:54;;;;;;;17.53;4.23;;;12.00;67.60;;;;;;5018534;28;20453;-80
2022/02/17 03:37:21;;;;;;;20.30;4.97;;;12.10;65.70;;;;;;5018395;28;20859;-82
2022/02/17 03:39:48;;;;;;;28.90;5.07;;;12.00;68.20;;;;;;5018723;28;20844;-82
2022/02/17 03:42:15;;;;;;;14.23;3.40;;;12.00;65.90;;;;;;5019256;28;21060;-80
2022/02/17 03:44:42;;;;;;;18.43;3.40;;;11.90;65.70;;;;;;5020321;28;20468;-81
2022/02/17 03:47:11;;;;;;;12.33;2.90;;;11.90;66.50;;;;;;5020155;28;20460;-80
2022/02/17 03:49:37;;;;;;;28.17;5.50;;;11.80;65.00;;;;;;5021986;28;20469;-80
2022/02/17 03:52:05;;;;;;;16.77;4.07;;;11.90;64.90;;;;;;5018819;28;20452;-81
2022/02/17 03:54:31;;;;;;;28.40;4.50;;;11.80;62.60;;;;;;5019296;28;20457;-81
2022/02/17 03:56:58;;;;;;;17.80;3.23;;;11.80;62.60;;;;;;5019505;28;20450;-80
2022/02/17 03:59:25;;;;;;;19.87;4.23;;;11.70;62.50;;;;;;5018343;28;20488;-80
2022/02/17 04:01:52;;;;;;;14.73;3.87;;;11.80;62.60;;;;;;5020059;28;20487;-81
2022/02/17 04:04:20;;;;;;;27.13;6.00;;;11.60;63.20;;;;;;5020395;28;20884;-83
2022/02/17 04:06:47;;;;;;;18.70;3.83;;;11.60;62.40;;;;;;5019377;28;20953;-81
2022/02/17 04:09:16;;;;;;;18.80;4.50;;;11.60;62.40;;;;;;5018820;28;20557;-81
2022/02/17 04:11:42;;;;;;;17.63;3.77;;;11.70;62.50;;;;;;5018826;28;20453;-81
2022/02/17 04:14:09;;;;;;;16.80;4.07;;;11.60;62.40;;;;;;5018461;28;20463;-81
2022/02/17 04:16:36;;;;;;;19.03;3.37;;;11.60;62.40;;;;;;5017680;28;20454;-80
2022/02/17 04:19:03;;;;;;;14.23;3.60;;;11.60;62.40;;;;;;5036297;22;20490;-81
2022/02/17 04:21:31;;;;;;;16.23;4.63;;;11.50;62.30;;;;;;5002850;28;20482;-82
2022/02/17 04:23:58;;;;;;;22.97;4.77;;;11.50;62.30;;;;;;5021818;28;20457;-83
2022/02/17 04:26:25;;;;;;;10.40;3.33;;;11.50;62.30;;;;;;5020801;28;20449;-81
2022/02/17 04:28:55;;;;;;;12.67;4.00;;;11.60;61.60;;;;;;5002105;28;20484;-82
2022/02/17 04:31:22;;;;;;;15.00;4.70;;;11.60;60.30;;;;;;5002677;28;20891;-82
2022/02/17 04:33:49;;;;;;;14.07;3.17;;;11.60;59.00;;;;;;5003012;28;20458;-82
2022/02/17 04:36:16;;;;;;;21.20;5.00;;;11.50;58.70;;;;;;5003018;28;20465;-82
2022/02/17 04:38:44;;;;;;;27.10;4.57;;;11.40;61.00;;;;;;5002979;28;20474;-82
2022/02/17 04:43:57;;;;;;;21.23;3.53;;;11.40;59.10;;;;;;5002835;28;20436;-82
2022/02/17 04:46:27;;;;;;;14.03;4.70;;;11.40;57.20;;;;;;5002990;28;20449;-81
2022/02/17 04:48:54;;;;;;;22.97;4.00;;;11.40;58.90;;;;;;5002064;28;20469;-81
2022/02/17 04:51:20;;;;;;;27.67;4.63;;;11.30;61.30;;;;;;5003334;28;20446;-81
2022/02/17 04:53:48;;;;;;;16.30;3.63;;;11.20;62.20;;;;;;5001625;28;20460;-81
2022/02/17 04:56:17;;;;;;;23.53;4.37;;;11.20;62.10;;;;;;5001445;28;20462;-81
2022/02/17 04:58:49;;;;;;;12.90;4.03;;;11.20;58.70;;;;;;5001793;28;20483;-81
2022/02/17 05:01:22;;;;;;;15.27;4.70;;;11.20;59.50;;;;;;5000604;28;20533;-82
2022/02/17 05:03:49;;;;;;;15.03;4.30;;;11.30;58.60;;;;;;4996320;28;20462;-81
2022/02/17 05:06:19;;;;;;;24.13;4.93;;;11.20;59.90;;;;;;4982068;28;20927;-83
2022/02/17 05:08:47;;;;;;;20.53;6.10;;;11.20;59.90;;;;;;5001114;28;20470;-83
2022/02/17 05:11:14;;;;;;;22.80;5.73;;;11.10;61.10;;;;;;5001932;28;20482;-81
2022/02/17 05:13:41;;;;;;;24.63;6.10;;;10.90;61.70;;;;;;5001734;28;20537;-81
2022/02/17 05:16:08;;;;;;;24.17;6.50;;;10.50;69.50;;;;;;5002337;28;20861;-82
2022/02/17 05:18:35;;;;;;;25.97;6.57;;;10.40;69.40;;;;;;5001709;28;20473;-81
2022/02/17 05:21:02;;;;;;;18.33;4.80;;;10.20;72.00;;;;;;5001018;28;20474;-81
2022/02/17 05:23:28;;;;;;;16.07;4.10;;;10.50;69.50;;;;;;5002364;28;20461;-81
2022/02/17 05:25:58;;;;;;;22.77;5.53;;;10.60;67.90;;;;;;5002001;28;20461;-83
2022/02/17 05:28:25;;;;;;;16.23;4.33;;;10.60;67.60;;;;;;5002033;28;20458;-83
2022/02/17 05:30:52;;;;;;;21.67;4.40;;;10.60;66.80;;;;;;5001466;28;20462;-82
2022/02/17 05:33:19;;;;;;;27.47;5.80;;;10.70;65.80;;;;;;4987415;28;20493;-82
2022/02/17 05:35:49;;;;;;;19.10;5.13;;;10.60;67.50;;;;;;4991589;28;20481;-82
2022/02/17 05:38:16;;;;;;;25.87;5.23;;;10.80;65.20;;;;;;5004008;28;20485;-81
2022/02/17 05:40:43;;;;;;;22.50;5.60;;;10.70;66.20;;;;;;5003720;28;20455;-83
2022/02/17 05:43:16;;;;;;;24.07;6.10;;;10.80;64.90;;;;;;5001800;28;20478;-81
2022/02/17 05:45:43;;;;;;;22.17;5.53;;;10.70;65.70;;;;;;5001668;28;20461;-81
2022/02/17 05:48:15;;;;;;;20.33;5.17;;;10.80;64.20;;;;;;5001036;28;20458;-80
2022/02/17 05:50:42;;;;;;;35.47;6.17;;;10.80;63.40;;;;;;5001180;28;20502;-82
2022/02/17 05:53:08;;;;;;;20.10;5.70;;;10.60;66.20;;;;;;4990661;28;20492;-82
2022/02/17 05:56:09;;;;;;;24.37;4.90;;;10.50;66.10;;;;;;5001179;28;20457;-82
2022/02/17 05:58:39;;;;;;;16.10;4.43;;;10.60;66.20;;;;;;5003333;28;20476;-83
2022/02/17 06:01:09;;;;;;;23.00;5.80;;;10.50;67.80;;;;;;5003011;28;20602;-82
2022/02/17 06:03:36;;;;;;;25.57;5.57;;;10.60;68.30;;;;;;5001918;28;20454;-80
2022/02/17 06:06:07;;;;;;;19.97;5.20;;;10.50;66.70;;;;;;5001492;28;21097;-82
2022/02/17 06:08:34;;;;;;;17.83;4.73;;;10.60;64.80;;;;;;5000691;28;20542;-82
2022/02/17 06:11:03;;;;;;;27.70;6.80;;;10.50;65.50;;;;;;5001018;28;20496;-83
2022/02/17 06:13:37;;;;;;;31.27;6.23;;;10.40;65.20;;;;;;5002229;28;20549;-83
2022/02/17 06:16:16;;;;;;;22.20;5.33;;;10.50;65.40;;;;;;4999782;28;20552;-82
2022/02/17 06:18:55;;;;;;;25.50;5.90;;;10.50;66.30;;;;;;4992951;28;20489;-82
2022/02/17 06:21:22;;;;;;;21.53;4.83;;;9.50;99.90;;;;;;4997858;28;20481;-81
2022/02/17 06:23:52;;;;;;;21.10;6.10;;;8.10;99.90;;;;;;4998800;28;20457;-81
2022/02/17 06:26:24;;;;;;;34.20;9.33;;;8.10;99.90;;;;;;4998509;28;20450;-81
2022/02/17 06:28:54;;;;;;;20.47;6.93;;;8.20;99.90;;;;;;4998360;28;20467;-81
2022/02/17 06:31:24;;;;;;;22.53;6.03;;;8.50;99.90;;;;;;4997952;28;20544;-81
2022/02/17 06:33:51;;;;;;;31.77;7.30;;;8.40;99.90;;;;;;4996798;28;20458;-82
2022/02/17 06:36:18;;;;;;;34.70;10.10;;;8.40;99.90;;;;;;4997808;28;20450;-81
2022/02/17 06:38:51;;;;;;;30.13;8.40;;;8.40;99.90;;;;;;4999153;28;20490;-83
2022/02/17 06:41:21;;;;;;;25.47;6.20;;;8.80;99.90;;;;;;4998546;28;20446;-81
2022/02/17 06:43:51;;;;;;;21.30;6.80;;;9.30;94.50;;;;;;4998831;28;20457;-82
2022/02/17 06:46:18;;;;;;;25.83;6.70;;;9.50;88.10;;;;;;4997721;28;20453;-82
2022/02/17 06:48:57;;;;;;;35.87;5.30;;;9.70;80.90;;;;;;4997953;28;20478;-82
2022/02/17 06:51:27;;;;;;;23.23;6.03;;;9.70;82.20;;;;;;4999282;28;20457;-83
2022/02/17 06:53:57;;;;;;;25.73;6.03;;;9.60;82.20;;;;;;5000425;28;20865;-83
2022/02/17 06:56:24;;;;;;;26.17;5.50;;;9.80;78.30;;;;;;5004260;28;20537;-81
2022/02/17 06:59:22;;;;;;;;;;;;;;;;;;;;;
2022/02/17 07:01:52;;;;;;;27.33;5.97;;;9.90;79.00;;;;;;4985425;28;20894;-82
2022/02/17 07:08:11;;;;;;;19.90;6.00;;;9.90;79.80;;;;;;4988064;28;20451;-83
2022/02/17 07:11:04;;;;;;;18.13;5.43;;;10.10;77.00;;;;;;4965017;28;20455;-83
2022/02/17 07:13:49;;;;;;;19.47;4.40;;;10.00;76.80;;;;;;4994128;28;20525;-83
2022/02/17 07:16:35;;;;;;;22.40;6.57;;;10.10;74.00;;;;;;5006905;28;20806;-82
2022/02/17 07:19:07;;;;;;;23.90;5.47;;;10.10;74.50;;;;;;5004025;28;20472;-82
2022/02/17 07:21:35;;;;;;;23.07;5.30;;;10.10;74.50;;;;;;5005358;28;20472;-83
2022/02/17 07:24:08;;;;;;;16.17;4.97;;;10.10;75.40;;;;;;5005266;28;20465;-82
2022/02/17 07:26:38;;;;;;;28.00;6.50;;;10.10;74.50;;;;;;5003648;28;20879;-82
2022/02/17 07:29:09;;;;;;;27.80;5.90;;;10.20;76.40;;;;;;5003027;28;20474;-81
2022/02/17 07:31:36;;;;;;;30.50;6.90;;;10.20;75.00;;;;;;5003500;28;20465;-81
2022/02/17 07:34:10;;;;;;;29.07;6.83;;;10.20;74.50;;;;;;5002452;28;20457;-83
2022/02/17 07:36:38;;;;;;;25.37;5.87;;;10.10;75.20;;;;;;5004142;28;20518;-82
2022/02/17 07:39:12;;;;;;;23.97;6.87;;;10.00;75.00;;;;;;5004657;28;20477;-82
2022/02/17 07:42:01;;;;;;;25.83;6.03;;;10.10;76.20;;;;;;5005733;28;20459;-82
2022/02/17 07:44:39;;;;;;;29.37;6.27;;;10.00;73.30;;;;;;5006146;28;20470;-84
2022/02/17 07:47:12;;;;;;;23.33;5.20;;;10.30;64.60;;;;;;5005522;28;20465;-82
2022/02/17 07:49:54;;;;;;;19.20;5.40;;;10.20;64.10;;;;;;5005287;28;20497;-84
2022/02/17 07:52:29;;;;;;;25.17;4.80;;;10.20;64.50;;;;;;5004591;28;20446;-84
2022/02/17 07:55:02;;;;;;;21.70;5.87;;;10.20;67.10;;;;;;5005876;28;20477;-83
2022/02/17 07:57:32;;;;;;;20.07;4.40;;;10.40;62.40;;;;;;5003938;28;20891;-84
2022/02/17 08:00:07;;;;;;;13.67;4.33;;;10.30;61.20;;;;;;5001925;28;20482;-84
2022/02/17 08:02:43;;;;;;;25.03;5.67;;;10.30;63.60;;;;;;5002434;28;20469;-83
2022/02/17 08:05:23;;;;;;;25.00;4.80;;;10.30;63.70;;;;;;5001138;28;20461;-84
2022/02/17 08:07:55;;;;;;;22.97;5.20;;;10.30;65.60;;;;;;5001696;28;20462;-84
2022/02/17 08:10:34;;;;;;;23.07;5.53;;;10.40;65.80;;;;;;5003756;28;20474;-83
2022/02/17 08:13:04;;;;;;;25.30;6.00;;;10.60;63.10;;;;;;5003003;28;20450;-83
2022/02/17 08:15:34;;;;;;;23.87;5.00;;;10.50;65.90;;;;;;5003479;28;20477;-84
2022/02/17 08:18:02;;;;;;;19.83;5.53;;;10.70;61.60;;;;;;5003118;28;20513;-84
2022/02/17 08:20:38;;;;;;;25.03;5.37;;;10.60;61.50;;;;;;5000396;28;20482;-84
2022/02/17 08:23:12;;;;;;;21.87;5.23;;;10.70;61.60;;;;;;5002308;28;20477;-85
2022/02/17 08:25:51;;;;;;;28.53;7.10;;;10.60;63.10;;;;;;5001781;28;20469;-83
2022/02/17 08:28:22;;;;;;;26.70;6.10;;;10.40;62.70;;;;;;5003551;28;20838;-85
2022/02/17 08:30:51;;;;;;;28.47;7.00;;;10.40;63.50;;;;;;5003121;28;20457;-85
2022/02/17 08:33:23;;;;;;;25.90;6.60;;;10.40;63.20;;;;;;5002869;28;20465;-84
2022/02/17 08:35:54;;;;;;;29.03;7.43;;;10.50;64.10;;;;;;5003542;28;20454;-84
2022/02/17 08:38:37;;;;;;;25.87;6.03;;;10.50;65.60;;;;;;5000658;28;20458;-85
2022/02/17 08:41:19;;;;;;;20.50;4.53;;;10.50;64.60;;;;;;5001290;28;20446;-85
2022/02/17 08:43:52;;;;;;;30.70;6.77;;;10.40;66.00;;;;;;5000347;28;20510;-86
2022/02/17 08:46:32;;;;;;;22.77;5.13;;;10.60;65.00;;;;;;5002714;28;20454;-84
2022/02/17 08:49:04;;;;;;;17.23;5.20;;;10.80;64.60;;;;;;5014923;22;20548;-84
2022/02/17 08:51:32;;;;;;;16.13;4.90;;;10.70;61.60;;;;;;5023417;28;20449;-83
2022/02/17 08:54:02;;;;;;;21.97;6.27;;;10.70;61.30;;;;;;5022430;28;20457;-84
2022/02/17 08:56:29;;;;;;;15.40;4.80;;;10.60;60.00;;;;;;5021082;28;20453;-83
2022/02/17 08:59:03;;;;;;;22.70;6.13;;;10.50;61.40;;;;;;5023331;28;21222;-82
2022/02/17 09:01:44;;;;;;;19.30;6.13;;;10.50;61.50;;;;;;5022337;28;20449;-84
2022/02/17 09:04:27;;;;;;;22.40;5.37;;;10.70;60.70;;;;;;5020924;28;20483;-84
2022/02/17 09:09:57;;;;;;;22.57;6.90;;;10.80;60.40;;;;;;5023926;28;20512;-83
2022/02/17 09:12:54;;;;;;;19.20;4.00;;;11.00;57.50;;;;;;5026093;28;20449;-84
2022/02/17 09:15:29;;;;;;;22.40;6.30;;;10.90;53.40;;;;;;5022991;28;20476;-83
2022/02/17 09:18:05;;;;;;;24.37;6.00;;;10.80;55.10;;;;;;5023138;28;20452;-86
2022/02/17 09:21:18;;;;;;;27.77;5.10;;;10.80;50.20;;;;;;5020475;28;20977;-85
2022/02/17 09:23:51;;;;;;;23.00;5.23;;;10.90;52.50;;;;;;4999324;28;20476;-85
2022/02/17 09:26:29;;;;;;;16.33;3.30;;;11.00;53.90;;;;;;5019908;28;20453;-84
2022/02/17 09:29:03;;;;;;;22.90;5.83;;;10.90;51.10;;;;;;5023495;28;20479;-84
2022/02/17 09:32:12;;;;;;;;;;;;;;;;;;;;;
2022/02/17 09:35:19;;;;;;;16.27;4.07;;;10.90;53.30;;;;;;5004243;28;20542;-84
2022/02/17 09:37:52;;;;;;;29.33;6.33;;;11.00;50.00;;;;;;4954918;28;20456;-86
2022/02/17 09:41:02;;;;;;;22.37;5.47;;;11.00;51.00;;;;;;5018172;28;20473;-85
2022/02/17 09:44:03;;;;;;;;;;;;;;;;;;;;;
2022/02/17 09:46:59;;;;;;;20.73;5.07;;;11.20;47.70;;;;;;5020271;28;20540;-85
2022/02/17 09:53:21;;;;;;;14.40;3.90;;;11.40;47.80;;;;;;5020062;28;20458;-82
2022/02/17 10:02:28;;;;;;;17.00;4.47;;;11.10;38.20;;;;;;5014259;28;20453;-82
2022/02/17 10:05:06;;;;;;;19.87;5.13;;;11.70;37.70;;;;;;5019240;28;20475;-84
2022/02/17 10:10:50;;;;;;;14.53;3.40;;;12.00;41.50;;;;;;5019386;28;21044;-86
2022/02/17 10:13:19;;;;;;;19.10;3.90;;;11.80;39.40;;;;;;5017831;28;20938;-87
2022/02/17 10:15:58;;;;;;;20.97;4.00;;;12.00;39.80;;;;;;5017364;28;20524;-85
2022/02/17 10:21:46;;;;;;;13.23;3.50;;;12.40;38.70;;;;;;5014491;28;20464;-85
2022/02/17 10:24:37;;;;;;;16.13;3.40;;;12.70;36.70;;;;;;5018395;28;20559;-85
2022/02/17 10:27:22;;;;;;;10.43;2.90;;;12.50;33.70;;;;;;5018221;28;20453;-84
2022/02/17 10:30:26;;;;;;;16.60;3.90;;;12.30;33.30;;;;;;5020237;28;20477;-83
2022/02/17 10:33:07;;;;;;;19.93;3.53;;;12.70;33.70;;;;;;5021952;28;20476;-83
2022/02/17 10:35:59;;;;;;;16.97;3.50;;;12.40;34.10;;;;;;5022436;28;20489;-83
2022/02/17 10:41:51;;;;;;;19.10;4.10;;;12.70;37.00;;;;;;5018105;28;20505;-84
2022/02/17 10:44:49;;;;;;;13.63;3.47;;;12.70;34.40;;;;;;5020622;28;20452;-83
2022/02/17 10:47:23;;;;;;;15.10;3.90;;;12.80;32.60;;;;;;5018569;28;20801;-84
2022/02/17 10:50:05;;;;;;;22.10;3.30;;;13.20;35.10;;;;;;5018296;28;20485;-84
2022/02/17 10:52:40;;;;;;;15.47;2.80;;;13.40;30.20;;;;;;5020817;28;20443;-84
2022/02/17 10:55:31;;;;;;;10.70;2.90;;;13.30;29.30;;;;;;5020104;28;20467;-84
2022/02/17 10:58:16;;;;;;;13.47;3.33;;;13.20;29.30;;;;;;5019296;28;20455;-84
2022/02/17 11:00:46;;;;;;;16.27;3.97;;;13.30;29.30;;;;;;5019903;28;20464;-84
2022/02/17 11:03:36;;;;;;;12.50;2.80;;;13.30;28.20;;;;;;5021406;28;20881;-83
2022/02/17 11:06:19;;;;;;;12.53;3.40;;;12.70;28.90;;;;;;5018819;28;20483;-83
2022/02/17 11:08:55;;;;;;;11.60;2.93;;;12.10;29.00;;;;;;5020037;28;20478;-84
2022/02/17 11:11:25;;;;;;;10.80;2.83;;;12.20;28.50;;;;;;5019566;28;20462;-84
2022/02/17 11:19:46;;;;;;;13.43;4.20;;;11.70;31.40;;;;;;5019235;28;20457;-83
2022/02/17 11:23:01;;;;;;;9.87;2.50;;;11.40;31.50;;;;;;5019224;28;20465;-84
2022/02/17 11:28:50;;;;;;;10.30;2.43;;;10.80;33.60;;;;;;4984084;28;20461;-83
2022/02/17 11:31:24;;;;;;;14.47;2.50;;;10.90;31.00;;;;;;5017545;28;20452;-84
2022/02/17 11:34:33;;;;;;;15.27;3.03;;;11.60;32.30;;;;;;5018230;28;20595;-82
2022/02/17 11:40:29;;;;;;;17.83;4.33;;;12.20;28.50;;;;;;5015653;28;20825;-84
2022/02/17 11:43:14;;;;;;;17.20;2.77;;;12.50;29.30;;;;;;5018197;28;20457;-84
2022/02/17 11:45:56;;;;;;;19.23;3.27;;;12.70;27.20;;;;;;5019609;28;20538;-84
2022/02/17 11:48:48;;;;;;;18.23;3.40;;;12.90;27.00;;;;;;5016948;28;20938;-84
2022/02/17 11:51:21;;;;;;;10.70;3.07;;;12.30;27.70;;;;;;5019841;28;20505;-84
2022/02/17 11:57:00;;;;;;;16.93;2.90;;;12.80;21.70;;;;;;5018565;28;20471;-84
2022/02/17 11:59:36;;;;;;;12.33;2.40;;;12.90;21.90;;;;;;5017526;28;20489;-83
2022/02/17 12:02:27;;;;;;;7.00;2.43;;;12.50;20.70;;;;;;5016987;28;20533;-84
2022/02/17 12:05:20;;;;;;;9.87;3.37;;;12.20;22.00;;;;;;5017697;28;20508;-84
2022/02/17 12:07:54;;;;;;;13.87;3.40;;;12.20;24.20;;;;;;5019759;28;20453;-84
2022/02/17 12:10:33;;;;;;;9.10;2.63;;;12.40;23.10;;;;;;5017530;28;20915;-84
2022/02/17 12:13:38;;;;;;;12.67;3.03;;;12.70;25.20;;;;;;5018661;28;20483;-85
2022/02/17 12:16:16;;;;;;;10.50;3.00;;;12.90;23.20;;;;;;5007973;28;20461;-85
2022/02/17 12:18:57;;;;;;;12.00;2.57;;;12.20;22.90;;;;;;5018781;28;20522;-84
2022/02/17 12:21:35;;;;;;;20.53;2.20;;;12.10;23.50;;;;;;5018175;28;20454;-84
2022/02/17 12:24:19;;;;;;;10.87;4.40;;;12.10;26.00;;;;;;5018084;28;20937;-84
2022/02/17 12:27:00;;;;;;;10.13;3.17;;;12.30;26.70;;;;;;5016916;28;20442;-85
2022/02/17 12:29:40;;;;;;;11.97;2.00;;;12.90;25.80;;;;;;5017726;28;20893;-84
2022/02/17 12:32:24;;;;;;;14.73;2.90;;;13.10;22.10;;;;;;5016406;28;20536;-84
2022/02/17 12:35:05;;;;;;;12.87;4.23;;;12.50;20.80;;;;;;5017372;28;20569;-85
2022/02/17 12:38:05;;;;;;;8.57;2.33;;;12.30;24.80;;;;;;5018453;28;21025;-84
2022/02/17 12:40:34;;;;;;;16.77;3.07;;;11.90;25.00;;;;;;5017972;28;20577;-84
2022/02/17 12:43:19;;;;;;;;;;;;;;;;;;;;;
2022/02/17 12:45:51;;;;;;;15.73;3.33;;;11.80;25.10;;;;;;5018306;28;20475;-84
2022/02/17 12:48:30;;;;;;;5.30;1.43;;;11.70;24.60;;;;;;5017904;28;20864;-84
2022/02/17 12:50:57;;;;;;;13.77;3.30;;;11.60;27.50;;;;;;5018052;28;20457;-84
2022/02/17 12:53:27;;;;;;;14.03;2.73;;;11.90;28.30;;;;;;5018384;28;20567;-85
2022/02/17 12:56:02;;;;;;;14.90;3.40;;;12.30;24.90;;;;;;5014834;28;21083;-84
2022/02/17 12:58:45;;;;;;;10.67;2.60;;;13.20;26.40;;;;;;5014226;28;20458;-84
2022/02/17 13:01:21;;;;;;;17.23;3.13;;;13.80;23.70;;;;;;5014626;28;20538;-84
2022/02/17 13:03:49;;;;;;;11.83;2.23;;;14.10;22.70;;;;;;5013679;28;20492;-85
2022/02/17 13:06:28;;;;;;;9.80;2.33;;;14.30;22.30;;;;;;5014664;28;20457;-85
2022/02/17 13:08:59;;;;;;;12.30;4.20;;;14.20;20.70;;;;;;5014485;28;20469;-85
2022/02/17 13:11:30;;;;;;;14.13;2.80;;;14.00;20.60;;;;;;5016776;28;20464;-85
2022/02/17 13:14:23;;;;;;;13.50;2.43;;;13.90;18.90;;;;;;5013600;28;20497;-84
2022/02/17 13:17:03;;;;;;;12.47;2.47;;;14.10;22.20;;;;;;5014576;28;20458;-84
2022/02/17 13:19:41;;;;;;;9.83;2.03;;;13.30;24.60;;;;;;4996703;28;20480;-84
2022/02/17 13:22:36;;;;;;;14.37;3.10;;;12.40;28.70;;;;;;5015234;28;20463;-85
2022/02/17 13:25:16;;;;;;;13.13;2.90;;;11.90;30.00;;;;;;5016306;28;21021;-84
2022/02/17 13:27:51;;;;;;;12.83;3.03;;;11.40;32.00;;;;;;5013347;28;20460;-85
2022/02/17 13:30:36;;;;;;;8.87;3.00;;;11.30;36.20;;;;;;5016605;28;20557;-85
2022/02/17 13:33:09;;;;;;;13.37;2.83;;;11.20;36.10;;;;;;5015272;28;20480;-84
2022/02/17 13:35:50;;;;;;;20.73;3.40;;;11.20;40.40;;;;;;5017150;28;20484;-83
2022/02/17 13:38:43;;;;;;;13.40;3.20;;;11.00;43.90;;;;;;5015778;28;21030;-84
2022/02/17 13:41:14;;;;;;;16.70;3.60;;;11.10;43.50;;;;;;5014678;28;20464;-84
2022/02/17 13:43:58;;;;;;;17.80;3.70;;;11.10;43.30;;;;;;5013004;28;21007;-84
2022/02/17 13:46:35;;;;;;;10.17;3.87;;;11.30;46.70;;;;;;5014255;28;20907;-84
2022/02/17 13:49:41;;;;;;;22.33;3.30;;;11.10;44.30;;;;;;5013206;28;20471;-85
2022/02/17 13:52:19;;;;;;;20.50;3.47;;;10.90;44.70;;;;;;5013824;28;20461;-85
2022/02/17 13:54:52;;;;;;;12.80;3.10;;;11.00;46.10;;;;;;5012871;28;20475;-85